createdAt,value
2023-02-14T00:00:53.374Z,82.40
2023-02-14T00:03:32.512Z,82.33
2023-02-14T00:06:10.109Z,82.34
2023-02-14T00:08:44.345Z,82.04
2023-02-14T00:11:16.829Z,82.12
2023-02-14T00:14:02.447Z,82.36
2023-02-14T00:16:34.015Z,82.19
2023-02-14T00:19:05.983Z,82.06
2023-02-14T00:21:40.210Z,82.23
2023-02-14T00:24:14.938Z,82.24
2023-02-14T00:26:47.076Z,82.33
2023-02-14T00:29:20.550Z,82.38
2023-02-14T00:31:52.387Z,82.33
2023-02-14T00:34:24.173Z,82.50
2023-02-14T00:36:56.095Z,82.59
2023-02-14T00:39:29.065Z,82.50
2023-02-14T00:42:01.094Z,82.50
2023-02-14T00:44:32.825Z,82.64
2023-02-14T00:47:04.614Z,82.98
2023-02-14T00:49:36.461Z,82.92
2023-02-14T00:52:08.246Z,83.04
2023-02-14T00:54:40.260Z,83.09
2023-02-14T00:57:12.874Z,82.83
2023-02-14T00:59:44.560Z,82.73
2023-02-14T01:02:16.436Z,82.56
2023-02-14T01:04:48.241Z,82.86
2023-02-14T01:07:22.165Z,83.03
2023-02-14T01:09:53.843Z,83.00
2023-02-14T01:12:25.549Z,82.98
2023-02-14T01:14:57.376Z,83.01
2023-02-14T01:17:29.994Z,83.03
2023-02-14T01:20:00.541Z,83.17
2023-02-14T01:22:35.565Z,83.18
2023-02-14T01:25:09.303Z,83.27
2023-02-14T01:27:41.456Z,83.42
2023-02-14T01:30:17.960Z,83.58
2023-02-14T01:32:49.986Z,83.60
2023-02-14T01:35:21.777Z,83.70
2023-02-14T01:37:53.528Z,84.03
2023-02-14T01:40:25.570Z,84.19
2023-02-14T01:42:58.060Z,83.87
2023-02-14T01:45:32.623Z,83.95
2023-02-14T01:48:04.870Z,84.17
2023-02-14T01:50:42.397Z,83.95
2023-02-14T01:53:17.791Z,83.91
2023-02-14T01:55:59.128Z,83.96
2023-02-14T01:58:36.357Z,83.95
2023-02-14T02:01:08.751Z,84.02
2023-02-14T02:03:45.965Z,83.91
2023-02-14T02:06:22.534Z,83.99
2023-02-14T02:09:02.055Z,84.37
2023-02-14T02:11:35.990Z,84.42
2023-02-14T02:14:06.459Z,84.67
2023-02-14T02:17:00.020Z,84.23
2023-02-14T02:20:04.377Z,84.41
2023-02-14T02:22:56.534Z,84.62
2023-02-14T02:25:48.448Z,84.81
2023-02-14T02:28:54.855Z,84.79
2023-02-14T02:31:57.068Z,84.71
2023-02-14T02:37:58.490Z,84.60
2023-02-14T02:40:37.398Z,84.67
2023-02-14T02:43:26.267Z,84.55
2023-02-14T02:46:21.462Z,85.00
2023-02-14T02:49:02.548Z,85.31
2023-02-14T02:51:58.850Z,85.41
2023-02-14T02:54:35.672Z,85.26
2023-02-14T02:57:13.584Z,85.03
2023-02-14T02:59:48.138Z,85.27
2023-02-14T03:02:24.020Z,85.33
2023-02-14T03:04:59.929Z,85.07
2023-02-14T03:07:38.985Z,85.14
2023-02-14T03:10:16.165Z,85.13
2023-02-14T03:13:20.416Z,85.21
2023-02-14T03:16:12.029Z,85.22
2023-02-14T03:18:59.158Z,85.11
2023-02-14T03:21:41.142Z,85.18
2023-02-14T03:24:21.815Z,85.26
2023-02-14T03:27:00.990Z,85.60
2023-02-14T03:29:43.535Z,85.87
2023-02-14T03:32:22.136Z,85.88
2023-02-14T03:35:01.649Z,85.83
2023-02-14T03:37:38.015Z,85.77
2023-02-14T03:40:14.406Z,85.50
2023-02-14T03:42:52.722Z,85.47
2023-02-14T03:45:34.214Z,85.47
2023-02-14T03:48:09.954Z,85.43
2023-02-14T03:50:45.284Z,85.78
2023-02-14T03:53:22.461Z,85.94
2023-02-14T03:56:02.732Z,85.86
2023-02-14T03:58:39.114Z,85.91
2023-02-14T04:01:15.701Z,86.26
2023-02-14T04:03:53.433Z,86.59
2023-02-14T04:06:26.177Z,86.92
2023-02-14T04:08:57.960Z,87.08
2023-02-14T04:11:33.443Z,87.08
2023-02-14T04:14:05.967Z,87.08
2023-02-14T04:16:51.528Z,87.03
2023-02-14T04:19:23.867Z,86.86
2023-02-14T04:21:55.639Z,87.10
2023-02-14T04:24:27.512Z,87.14
2023-02-14T04:27:11.130Z,87.63
2023-02-14T04:29:45.692Z,87.65
2023-02-14T04:32:19.270Z,87.31
2023-02-14T04:34:51.917Z,87.48
2023-02-14T04:37:22.279Z,87.68
2023-02-14T04:39:54.006Z,87.71
2023-02-14T04:42:25.766Z,87.66
2023-02-14T04:44:57.435Z,87.50
2023-02-14T04:47:29.157Z,87.89
2023-02-14T04:50:01.031Z,87.89
2023-02-14T04:52:32.818Z,88.08
2023-02-14T04:55:04.729Z,87.92
2023-02-14T04:57:36.731Z,87.74
2023-02-14T05:00:10.993Z,87.89
2023-02-14T05:02:42.893Z,87.57
2023-02-14T05:05:15.273Z,87.57
2023-02-14T05:07:48.038Z,87.66
2023-02-14T05:10:18.351Z,87.65
2023-02-14T05:12:50.198Z,87.67
2023-02-14T05:15:21.969Z,87.48
2023-02-14T05:17:53.741Z,87.46
2023-02-14T05:20:25.500Z,87.54
2023-02-14T05:22:59.855Z,87.62
2023-02-14T05:25:32.351Z,87.71
2023-02-14T05:28:04.033Z,87.51
2023-02-14T05:30:35.876Z,87.43
2023-02-14T05:33:07.987Z,87.30
2023-02-14T05:35:40.187Z,87.22
2023-02-14T05:38:13.093Z,87.19
2023-02-14T05:40:45.896Z,87.19
2023-02-14T05:43:17.886Z,87.15
2023-02-14T05:45:50.107Z,87.13
2023-02-14T05:48:21.869Z,87.01
2023-02-14T05:50:54.512Z,86.90
2023-02-14T05:53:26.192Z,86.89
2023-02-14T05:55:57.855Z,87.09
2023-02-14T05:58:29.806Z,87.08
2023-02-14T06:01:02.462Z,87.18
2023-02-14T06:03:34.573Z,87.32
2023-02-14T06:06:06.751Z,87.20
2023-02-14T06:08:38.693Z,87.28
2023-02-14T06:11:10.828Z,87.08
2023-02-14T06:13:42.603Z,86.92
2023-02-14T06:16:14.296Z,87.12
2023-02-14T06:18:46.808Z,87.37
2023-02-14T06:21:18.490Z,87.61
2023-02-14T06:23:50.892Z,87.45
2023-02-14T06:26:22.612Z,87.38
2023-02-14T06:28:57.840Z,87.02
2023-02-14T06:31:30.446Z,86.72
2023-02-14T06:34:02.448Z,86.55
2023-02-14T06:36:34.711Z,86.75
2023-02-14T06:39:07.087Z,87.10
2023-02-14T06:41:38.891Z,87.15
2023-02-14T06:44:10.642Z,87.08
2023-02-14T06:46:42.383Z,87.12
2023-02-14T06:49:14.093Z,87.23
2023-02-14T06:51:46.212Z,86.68
2023-02-14T06:54:18.305Z,86.67
2023-02-14T06:56:50.071Z,86.37
2023-02-14T06:59:22.773Z,86.16
2023-02-14T07:01:53.700Z,86.31
2023-02-14T07:04:25.870Z,86.50
2023-02-14T07:06:57.770Z,86.44
2023-02-14T07:09:30.048Z,86.39
2023-02-14T07:12:03.023Z,86.22
2023-02-14T07:14:34.907Z,86.03
2023-02-14T07:17:06.693Z,85.89
2023-02-14T07:19:38.427Z,86.11
2023-02-14T07:22:10.226Z,85.90
2023-02-14T07:24:42.532Z,85.48
2023-02-14T07:27:14.238Z,85.31
2023-02-14T07:29:45.983Z,85.25
2023-02-14T07:32:18.194Z,85.11
2023-02-14T07:34:50.088Z,85.08
2023-02-14T07:37:22.094Z,85.25
2023-02-14T07:39:54.018Z,84.84
2023-02-14T07:42:25.848Z,84.83
2023-02-14T07:45:00.498Z,84.71
2023-02-14T07:47:34.819Z,84.91
2023-02-14T07:50:08.028Z,84.78
2023-02-14T07:52:39.735Z,84.82
2023-02-14T07:55:12.355Z,84.86
2023-02-14T07:57:44.150Z,84.61
2023-02-14T08:00:16.961Z,84.27
2023-02-14T08:02:49.434Z,83.98
2023-02-14T08:05:21.813Z,83.88
2023-02-14T08:07:55.253Z,83.59
2023-02-14T08:10:27.351Z,83.46
2023-02-14T08:13:02.161Z,83.66
2023-02-14T08:15:53.457Z,83.16
2023-02-14T08:18:27.084Z,82.74
2023-02-14T08:20:59.134Z,82.53
2023-02-14T08:23:33.265Z,82.52
2023-02-14T08:26:05.242Z,82.32
2023-02-14T08:28:37.493Z,82.07
2023-02-14T08:31:09.500Z,81.86
2023-02-14T08:33:43.093Z,81.53
2023-02-14T08:36:17.755Z,81.31
2023-02-14T08:38:50.264Z,81.03
2023-02-14T08:41:22.034Z,81.03
2023-02-14T08:43:53.766Z,80.90
2023-02-14T08:46:29.118Z,80.53
2023-02-14T08:49:00.899Z,80.10
2023-02-14T08:51:32.632Z,80.03
2023-02-14T08:54:04.884Z,79.68
2023-02-14T08:56:36.681Z,79.70
2023-02-14T08:59:08.462Z,79.89
2023-02-14T09:01:40.355Z,80.17
2023-02-14T09:04:12.300Z,79.68
2023-02-14T09:06:44.162Z,79.31
2023-02-14T09:09:17.561Z,79.02
2023-02-14T09:11:49.514Z,79.04
2023-02-14T09:14:21.795Z,78.89
2023-02-14T09:16:53.600Z,78.01
2023-02-14T09:19:25.377Z,77.44
2023-02-14T09:21:57.324Z,77.07
2023-02-14T09:24:29.359Z,76.38
2023-02-14T09:27:01.499Z,76.46
2023-02-14T09:29:33.644Z,75.95
2023-02-14T09:32:06.385Z,76.14
2023-02-14T09:34:56.793Z,76.12
2023-02-14T09:37:46.220Z,75.44
2023-02-14T09:40:20.336Z,75.14
2023-02-14T09:43:10.838Z,74.90
2023-02-14T09:45:43.780Z,74.45
2023-02-14T09:48:28.205Z,74.29
2023-02-14T09:51:04.499Z,73.78
2023-02-14T09:53:46.358Z,73.31
2023-02-14T09:56:26.067Z,73.37
2023-02-14T09:59:05.997Z,73.28
2023-02-14T10:01:44.356Z,72.67
2023-02-14T10:04:30.134Z,72.81
2023-02-14T10:07:18.468Z,72.24
2023-02-14T10:10:00.544Z,72.15
2023-02-14T10:12:37.086Z,71.55
2023-02-14T10:15:16.803Z,71.23
2023-02-14T10:17:52.252Z,71.01
2023-02-14T10:20:28.227Z,70.73
2023-02-14T10:23:06.691Z,70.94
2023-02-14T10:25:45.516Z,70.93
2023-02-14T10:28:19.827Z,70.76
2023-02-14T10:31:01.563Z,70.46
2023-02-14T10:33:36.150Z,70.51
2023-02-14T10:36:20.574Z,70.58
2023-02-14T10:39:04.115Z,70.26
2023-02-14T10:41:49.578Z,70.27
2023-02-14T10:44:41.400Z,70.16
2023-02-14T10:47:27.513Z,70.40
2023-02-14T10:50:09.520Z,69.88
2023-02-14T10:52:47.312Z,69.73
2023-02-14T10:55:32.325Z,69.38
2023-02-14T10:58:08.274Z,69.68
2023-02-14T11:00:46.041Z,69.96
2023-02-14T11:03:18.744Z,69.77
2023-02-14T11:05:51.497Z,69.66
2023-02-14T11:08:25.123Z,69.98
2023-02-14T11:11:04.078Z,69.38
2023-02-14T11:13:39.375Z,68.78
2023-02-14T11:16:14.898Z,68.83
2023-02-14T11:18:46.965Z,69.03
2023-02-14T11:21:24.188Z,68.55
2023-02-14T11:23:56.532Z,68.07
2023-02-14T11:26:32.244Z,67.19
2023-02-14T11:29:11.950Z,66.71
2023-02-14T11:31:44.381Z,66.40
2023-02-14T11:34:36.601Z,66.69
2023-02-14T11:37:28.585Z,67.08
2023-02-14T11:40:02.368Z,67.69
2023-02-14T11:42:42.403Z,68.13
2023-02-14T11:45:32.678Z,68.14
2023-02-14T11:48:22.359Z,68.44
2023-02-14T11:51:06.605Z,69.01
2023-02-14T11:53:45.793Z,69.66
2023-02-14T11:56:19.266Z,70.00
2023-02-14T11:58:55.403Z,69.75
2023-02-14T12:01:30.971Z,68.93
2023-02-14T12:04:07.454Z,68.34
2023-02-14T12:06:39.484Z,67.89
2023-02-14T12:09:30.029Z,67.58
2023-02-14T12:12:04.497Z,67.07
2023-02-14T12:14:37.600Z,66.88
2023-02-14T12:17:22.277Z,65.72
2023-02-14T12:20:00.969Z,64.88
2023-02-14T12:22:41.305Z,64.05
2023-02-14T12:25:20.928Z,63.44
2023-02-14T12:27:58.070Z,63.46
2023-02-14T12:30:33.460Z,63.08
2023-02-14T12:33:16.872Z,63.38
2023-02-14T12:35:55.841Z,63.43
2023-02-14T12:38:37.431Z,63.00
2023-02-14T12:41:26.447Z,63.64
2023-02-14T12:43:59.842Z,63.87
2023-02-14T12:46:56.906Z,63.38
2023-02-14T12:49:57.329Z,62.86
2023-02-14T12:52:48.245Z,62.28
2023-02-14T12:55:44.024Z,62.33
2023-02-14T12:58:27.048Z,62.41
2023-02-14T13:01:11.232Z,63.82
2023-02-14T13:03:59.961Z,63.41
2023-02-14T13:06:35.371Z,63.12
2023-02-14T13:09:25.437Z,62.97
2023-02-14T13:12:08.582Z,63.21
2023-02-14T13:14:52.033Z,63.40
2023-02-14T13:17:34.794Z,63.35
2023-02-14T13:20:34.983Z,63.62
2023-02-14T13:23:13.644Z,64.73
2023-02-14T13:25:50.807Z,65.50
2023-02-14T13:28:23.150Z,65.70
2023-02-14T13:30:56.693Z,65.88
2023-02-14T13:33:36.370Z,66.01
2023-02-14T13:36:11.200Z,66.15
2023-02-14T13:38:46.874Z,66.26
2023-02-14T13:41:20.676Z,66.64
2023-02-14T13:43:57.536Z,66.57
2023-02-14T13:46:52.125Z,66.91
2023-02-14T13:49:30.665Z,67.03
2023-02-14T13:52:04.696Z,67.01
2023-02-14T13:54:45.512Z,67.08
2023-02-14T13:57:34.138Z,67.33
2023-02-14T14:00:36.382Z,66.78
2023-02-14T14:03:13.292Z,66.81
2023-02-14T14:06:04.788Z,67.11
2023-02-14T14:08:51.988Z,66.63
2023-02-14T14:11:52.459Z,66.50
2023-02-14T14:14:36.382Z,66.57
2023-02-14T14:17:27.560Z,66.71
2023-02-14T14:19:59.718Z,66.79
2023-02-14T14:22:32.058Z,67.03
2023-02-14T14:25:08.832Z,67.27
2023-02-14T14:27:46.744Z,67.18
2023-02-14T14:30:25.753Z,67.35
2023-02-14T14:32:58.097Z,67.48
2023-02-14T14:35:29.854Z,67.62
2023-02-14T14:38:03.702Z,67.47
2023-02-14T14:40:38.400Z,67.28
2023-02-14T14:43:27.189Z,67.27
2023-02-14T14:46:00.628Z,67.52
2023-02-14T14:48:38.458Z,67.77
2023-02-14T14:51:24.890Z,68.03
2023-02-14T14:53:59.903Z,68.20
2023-02-14T14:56:35.437Z,67.95
2023-02-14T14:59:27.400Z,68.00
2023-02-14T15:01:59.952Z,68.29
2023-02-14T15:04:33.928Z,68.47
2023-02-14T15:10:21.616Z,69.19
2023-02-14T15:13:15.302Z,68.63
2023-02-14T15:15:52.182Z,68.42
2023-02-14T15:18:24.935Z,68.69
2023-02-14T15:20:55.587Z,68.83
2023-02-14T15:23:28.176Z,68.89
2023-02-14T15:26:00.406Z,68.85
2023-02-14T15:28:35.386Z,68.84
2023-02-14T15:31:08.627Z,69.03
2023-02-14T15:33:40.974Z,69.15
2023-02-14T15:36:21.025Z,69.07
2023-02-14T15:38:59.318Z,69.46
2023-02-14T15:41:31.021Z,69.58
2023-02-14T15:44:02.779Z,69.77
2023-02-14T15:46:40.110Z,69.88
2023-02-14T15:49:16.219Z,70.18
2023-02-14T15:51:51.457Z,70.41
2023-02-14T15:54:29.605Z,70.42
2023-02-14T15:57:02.678Z,70.49
2023-02-14T15:59:36.799Z,70.58
2023-02-14T16:02:27.077Z,70.71
2023-02-14T16:05:07.257Z,70.55
2023-02-14T16:07:39.499Z,70.56
2023-02-14T16:10:25.494Z,70.72
2023-02-14T16:12:59.945Z,70.95
2023-02-14T16:15:33.748Z,71.05
2023-02-14T16:18:18.124Z,71.38
2023-02-14T16:20:51.514Z,71.43
2023-02-14T16:23:27.094Z,71.35
2023-02-14T16:25:59.218Z,71.55
2023-02-14T16:28:34.582Z,71.81
2023-02-14T16:31:10.418Z,72.16
2023-02-14T16:33:42.784Z,72.18
2023-02-14T16:36:23.142Z,72.57
2023-02-14T16:38:55.644Z,72.51
2023-02-14T16:41:32.084Z,72.70
2023-02-14T16:44:04.388Z,73.01
2023-02-14T16:46:38.197Z,73.17
2023-02-14T16:49:10.125Z,73.19
2023-02-14T16:51:44.780Z,73.32
2023-02-14T16:54:20.119Z,73.38
2023-02-14T16:56:56.843Z,73.53
2023-02-14T16:59:28.662Z,73.70
2023-02-14T17:02:02.286Z,73.81
2023-02-14T17:04:34.423Z,73.92
2023-02-14T17:07:07.491Z,73.81
2023-02-14T17:09:44.692Z,73.91
2023-02-14T17:12:21.590Z,73.69
2023-02-14T17:14:59.714Z,73.63
2023-02-14T17:17:31.830Z,73.89
2023-02-14T17:20:04.887Z,74.01
2023-02-14T17:22:37.530Z,74.00
2023-02-14T17:25:10.297Z,73.99
2023-02-14T17:27:43.913Z,74.04
2023-02-14T17:30:20.046Z,74.02
2023-02-14T17:32:51.927Z,74.20
2023-02-14T17:35:24.176Z,74.34
2023-02-14T17:37:56.001Z,74.76
2023-02-14T17:40:27.995Z,74.67
2023-02-14T17:43:00.990Z,74.58
2023-02-14T17:45:32.790Z,74.79
2023-02-14T17:48:04.582Z,74.99
2023-02-14T17:50:36.559Z,75.56
2023-02-14T17:53:09.319Z,75.87
2023-02-14T17:55:39.457Z,75.76
2023-02-14T17:58:11.536Z,76.48
2023-02-14T18:00:43.878Z,77.33
2023-02-14T18:03:15.796Z,77.60
2023-02-14T18:05:48.008Z,77.58
2023-02-14T18:08:20.734Z,77.60
2023-02-14T18:10:50.882Z,78.25
2023-02-14T18:13:22.721Z,79.49
2023-02-14T18:15:55.336Z,79.74
2023-02-14T18:18:26.213Z,79.84
2023-02-14T18:21:00.324Z,80.00
2023-02-14T18:23:33.230Z,78.97
2023-02-14T18:26:05.568Z,79.33
2023-02-14T18:28:37.911Z,79.85
2023-02-14T18:31:14.260Z,80.31
2023-02-14T18:33:47.312Z,79.58
2023-02-14T18:36:21.829Z,80.16
2023-02-14T18:38:55.062Z,80.46
2023-02-14T18:41:30.087Z,81.22
2023-02-14T18:44:03.263Z,81.74
2023-02-14T18:46:36.676Z,81.73
2023-02-14T18:49:09.416Z,81.28
2023-02-14T18:51:41.681Z,80.92
2023-02-14T18:54:13.498Z,81.68
2023-02-14T18:56:45.862Z,82.19
2023-02-14T18:59:17.636Z,81.68
2023-02-14T19:01:49.436Z,80.96
2023-02-14T19:04:21.756Z,80.73
2023-02-14T19:06:53.608Z,81.16
2023-02-14T19:09:27.379Z,81.63
2023-02-14T19:12:00.205Z,81.95
2023-02-14T19:14:32.211Z,81.43
2023-02-14T19:17:05.506Z,81.26
2023-02-14T19:19:37.917Z,82.03
2023-02-14T19:22:09.616Z,81.38
2023-02-14T19:24:41.461Z,80.63
2023-02-14T19:27:13.477Z,80.37
2023-02-14T19:29:45.528Z,80.66
2023-02-14T19:32:17.538Z,81.33
2023-02-14T19:34:50.296Z,82.46
2023-02-14T19:37:22.318Z,82.53
2023-02-14T19:39:54.487Z,82.23
2023-02-14T19:42:26.229Z,82.44
2023-02-14T19:44:57.943Z,82.57
2023-02-14T19:47:46.261Z,82.11
2023-02-14T19:50:21.951Z,82.25
2023-02-14T19:52:54.020Z,82.48
2023-02-14T19:55:27.854Z,82.18
2023-02-14T19:57:59.908Z,82.63
2023-02-14T20:00:32.104Z,82.50
2023-02-14T20:03:06.050Z,83.69
2023-02-14T20:05:40.630Z,84.81
2023-02-14T20:08:12.879Z,84.76
2023-02-14T20:10:44.683Z,84.28
2023-02-14T20:13:16.634Z,84.13
2023-02-14T20:15:48.960Z,84.95
2023-02-14T20:18:20.766Z,85.07
2023-02-14T20:21:04.669Z,84.73
2023-02-14T20:23:36.822Z,84.43
2023-02-14T20:26:14.338Z,85.07
2023-02-14T20:28:47.302Z,85.36
2023-02-14T20:31:20.124Z,84.88
2023-02-14T20:33:52.846Z,84.22
2023-02-14T20:36:25.388Z,84.53
2023-02-14T20:38:56.776Z,85.05
2023-02-14T20:41:29.801Z,84.82
2023-02-14T20:44:06.829Z,84.77
2023-02-14T20:46:39.219Z,85.36
2023-02-14T20:49:12.359Z,85.61
2023-02-14T20:51:46.045Z,85.78
2023-02-14T20:54:18.397Z,85.63
2023-02-14T20:56:51.469Z,85.75
2023-02-14T20:59:27.283Z,86.54
2023-02-14T21:02:00.721Z,87.11
2023-02-14T21:04:33.820Z,86.72
2023-02-14T21:07:08.847Z,87.65
2023-02-14T21:09:40.691Z,88.15
2023-02-14T21:12:13.422Z,88.40
2023-02-14T21:14:45.327Z,88.20
2023-02-14T21:17:17.521Z,88.17
2023-02-14T21:19:49.390Z,88.00
2023-02-14T21:22:21.219Z,87.85
2023-02-14T21:24:55.868Z,87.62
2023-02-14T21:27:28.368Z,87.47
2023-02-14T21:30:00.465Z,87.27
2023-02-14T21:32:32.457Z,87.71
2023-02-14T21:35:05.260Z,88.08
2023-02-14T21:37:35.797Z,88.87
2023-02-14T21:40:09.563Z,89.32
2023-02-14T21:42:41.608Z,89.51
2023-02-14T21:45:33.284Z,89.85
2023-02-14T21:48:23.473Z,89.97
2023-02-14T21:50:55.245Z,89.59
2023-02-14T21:53:27.371Z,89.42
2023-02-14T21:56:06.614Z,89.41
2023-02-14T21:58:39.065Z,88.94
2023-02-14T22:01:17.418Z,89.46
2023-02-14T22:03:50.144Z,89.23
2023-02-14T22:06:20.430Z,89.64
2023-02-14T22:08:55.970Z,89.62
2023-02-14T22:11:29.684Z,89.68
2023-02-14T22:14:01.948Z,89.98
2023-02-14T22:16:36.610Z,90.47
2023-02-14T22:19:10.093Z,90.54
2023-02-14T22:21:42.461Z,90.16
2023-02-14T22:24:14.793Z,90.16
2023-02-14T22:26:46.866Z,90.45
2023-02-14T22:29:18.749Z,90.16
2023-02-14T22:31:50.953Z,89.60
2023-02-14T22:34:23.310Z,89.37
2023-02-14T22:36:55.139Z,89.68
2023-02-14T22:39:27.626Z,88.93
2023-02-14T22:41:59.534Z,88.52
2023-02-14T22:44:31.392Z,88.58
2023-02-14T22:47:03.113Z,88.96
2023-02-14T22:49:34.984Z,88.74
2023-02-14T22:52:07.151Z,88.38
2023-02-14T22:54:38.908Z,88.08
2023-02-14T22:57:10.628Z,88.03
2023-02-14T22:59:42.534Z,88.47
2023-02-14T23:02:14.713Z,88.71
2023-02-14T23:04:46.730Z,88.52
2023-02-14T23:07:18.536Z,88.66
2023-02-14T23:09:51.473Z,88.80
2023-02-14T23:12:37.270Z,89.57
2023-02-14T23:15:28.999Z,88.88
2023-02-14T23:18:18.103Z,89.76
2023-02-14T23:21:07.806Z,90.69
2023-02-14T23:23:39.523Z,91.30
2023-02-14T23:26:11.340Z,91.73
2023-02-14T23:28:43.526Z,92.14
2023-02-14T23:31:15.416Z,92.53
2023-02-14T23:33:50.677Z,92.40
2023-02-14T23:36:22.670Z,92.26
2023-02-14T23:38:54.596Z,92.28
2023-02-14T23:41:44.334Z,91.93
2023-02-14T23:44:17.267Z,90.87
2023-02-14T23:46:50.172Z,91.15
2023-02-14T23:49:22.463Z,91.86
2023-02-14T23:51:56.319Z,91.98
2023-02-14T23:54:29.161Z,92.08
2023-02-14T23:57:01.159Z,91.95
2023-02-14T23:59:32.970Z,91.61
